EYVI

Vilnius International Airport

Vilnius, Lithuania
METAR EYVI 201450Z 36007KT 3600 -SHSN BR OVC004CB M02/M03 Q1022 R01/5/0295 NOSIG
Observed Flight Rules
Feb-20 @ 14:50 UTC (5 hours ago) Instrument Flight Rules
Wind Visibility Clouds Conditions
360° at 7 knots 3,605 meters
  • Overcast at 400' AGL
  • Light Snow
  • Mist
Temperatures Readings
Current -2°C / 28°F
Dewpoint -3°C / 27°F
Humidity 93%
Altimeter 30.18" Hg
Pressure 1022 hPa
Elevation 197
METAR EYVI 201450Z 36007KT 3600 -SHSN BR OVC004CB M02/M03 Q1022 R01/5/0295 NOSIG
Observed Flight Rules
Feb-20 @ 14:50 UTC
(5 hours ago)
LIFR
Wind Visibility
360° at 7 knots 3,605 meters
Clouds
  • Overcast at 400' AGL
Conditions
  • Light Snow
  • Mist
Temperature Dewpoint
-2°C / 28°F -3°C / 27°F
Humidity Altimeter Pressure
93% 30.18" Hg 1022 hPa